createdAt,value
2024-03-14T00:01:07.952Z,15.67
2024-03-14T00:03:38.618Z,9.10
2024-03-14T00:06:06.604Z,15.30
2024-03-14T00:08:34.343Z,10.13
2024-03-14T00:11:02.065Z,7.93
2024-03-14T00:13:30.135Z,9.33
2024-03-14T00:15:57.872Z,5.00
2024-03-14T00:18:26.246Z,6.73
2024-03-14T00:20:54.409Z,6.00
2024-03-14T00:23:25.722Z,5.93
2024-03-14T00:25:53.381Z,5.30
2024-03-14T00:28:20.983Z,6.93
2024-03-14T00:30:48.644Z,8.97
2024-03-14T00:33:16.323Z,8.13
2024-03-14T00:35:44.403Z,7.83
2024-03-14T00:38:12.093Z,8.80
2024-03-14T00:40:40.117Z,7.57
2024-03-14T00:43:07.836Z,9.60
2024-03-14T00:45:35.547Z,9.43
2024-03-14T00:48:03.290Z,8.50
2024-03-14T00:50:35.015Z,7.67
2024-03-14T00:53:03.732Z,5.83
2024-03-14T00:55:31.403Z,6.13
2024-03-14T00:57:59.045Z,6.60
2024-03-14T01:00:27.734Z,7.77
2024-03-14T01:02:55.593Z,6.70
2024-03-14T01:05:23.274Z,8.73
2024-03-14T01:07:50.921Z,11.30
2024-03-14T01:10:19.132Z,8.07
2024-03-14T01:12:47.635Z,9.83
2024-03-14T01:15:18.160Z,12.83
2024-03-14T01:17:45.916Z,9.30
2024-03-14T01:20:17.934Z,10.83
2024-03-14T01:22:45.783Z,22.57
2024-03-14T01:25:13.515Z,11.07
2024-03-14T01:27:41.111Z,7.87
2024-03-14T01:30:12.170Z,7.60
2024-03-14T01:32:40.920Z,14.07
2024-03-14T01:35:09.811Z,7.53
2024-03-14T01:37:37.506Z,17.90
2024-03-14T01:40:05.514Z,7.17
2024-03-14T01:42:33.449Z,10.67
2024-03-14T01:45:02.921Z,14.97
2024-03-14T01:47:31.128Z,11.30
2024-03-14T01:49:58.865Z,11.03
2024-03-14T01:52:27.240Z,11.10
2024-03-14T01:54:54.890Z,10.83
2024-03-14T01:57:22.631Z,19.23
2024-03-14T01:59:51.838Z,14.00
2024-03-14T02:02:20.271Z,9.90
2024-03-14T02:05:02.125Z,10.30
2024-03-14T02:07:33.793Z,11.20
2024-03-14T02:10:01.468Z,10.00
2024-03-14T02:12:29.277Z,8.23
2024-03-14T02:14:56.910Z,18.93
2024-03-14T02:17:24.580Z,9.13
2024-03-14T02:19:52.202Z,9.60
2024-03-14T02:22:22.887Z,12.73
2024-03-14T02:24:53.631Z,16.03
2024-03-14T02:27:21.729Z,14.03
2024-03-14T02:29:49.507Z,17.13
2024-03-14T02:32:17.109Z,18.13
2024-03-14T02:34:44.889Z,16.40
2024-03-14T02:37:15.241Z,21.80
2024-03-14T02:39:43.325Z,15.57
2024-03-14T02:42:12.820Z,13.67
2024-03-14T02:44:40.466Z,9.63
2024-03-14T02:47:11.180Z,12.13
2024-03-14T02:49:39.795Z,21.20
2024-03-14T02:52:07.569Z,16.40
2024-03-14T02:54:35.223Z,17.13
2024-03-14T02:57:02.878Z,20.17
2024-03-14T02:59:32.496Z,13.17
2024-03-14T03:02:01.833Z,17.63
2024-03-14T03:04:32.574Z,26.10
2024-03-14T03:07:06.990Z,16.17
2024-03-14T03:09:39.317Z,17.87
2024-03-14T03:12:07.403Z,24.73
2024-03-14T03:14:35.085Z,15.80
2024-03-14T03:17:02.759Z,19.13
2024-03-14T03:19:30.433Z,13.20
2024-03-14T03:22:00.118Z,30.13
2024-03-14T03:24:27.737Z,17.70
2024-03-14T03:26:55.621Z,15.17
2024-03-14T03:29:23.271Z,19.73
2024-03-14T03:31:50.896Z,18.10
2024-03-14T03:34:25.045Z,29.90
2024-03-14T03:36:52.743Z,20.60
2024-03-14T03:39:20.695Z,15.23
2024-03-14T03:41:48.412Z,31.30
2024-03-14T03:44:16.138Z,19.47
2024-03-14T03:46:46.579Z,24.40
2024-03-14T03:49:14.352Z,27.47
2024-03-14T03:51:42.004Z,16.77
2024-03-14T03:54:09.780Z,30.23
2024-03-14T03:56:37.451Z,28.87
2024-03-14T03:59:09.674Z,24.00
2024-03-14T04:01:37.367Z,40.13
2024-03-14T04:04:05.061Z,21.23
2024-03-14T04:06:34.876Z,25.27
2024-03-14T04:09:03.126Z,20.47
2024-03-14T04:11:30.897Z,41.57
2024-03-14T04:13:59.488Z,24.63
2024-03-14T04:16:29.137Z,22.70
2024-03-14T04:18:57.272Z,23.57
2024-03-14T04:21:25.005Z,24.87
2024-03-14T04:23:52.671Z,28.50
2024-03-14T04:26:20.346Z,28.03
2024-03-14T04:28:47.995Z,26.13
2024-03-14T04:31:15.626Z,26.17
2024-03-14T04:33:43.411Z,17.53
2024-03-14T04:36:11.316Z,18.87
2024-03-14T04:38:41.849Z,14.07
2024-03-14T04:41:16.868Z,18.67
2024-03-14T04:43:48.653Z,16.33
2024-03-14T04:46:18.130Z,14.60
2024-03-14T04:48:47.094Z,11.57
2024-03-14T04:51:15.075Z,15.47
2024-03-14T04:53:42.816Z,21.40
2024-03-14T04:56:10.455Z,13.97
2024-03-14T04:58:39.275Z,17.20
2024-03-14T05:01:07.650Z,17.13
2024-03-14T05:03:35.697Z,15.23
2024-03-14T05:06:05.108Z,15.97
2024-03-14T05:08:32.819Z,11.40
2024-03-14T05:11:00.611Z,19.03
2024-03-14T05:13:29.396Z,29.10
2024-03-14T05:15:57.534Z,17.10
2024-03-14T05:18:25.452Z,18.00
2024-03-14T05:20:55.150Z,17.03
2024-03-14T05:23:22.881Z,13.73
2024-03-14T05:25:50.560Z,19.23
2024-03-14T05:28:18.188Z,9.47
2024-03-14T05:30:45.883Z,11.13
2024-03-14T05:33:13.618Z,11.27
2024-03-14T05:35:41.887Z,6.27
2024-03-14T05:38:10.468Z,5.50
2024-03-14T05:40:38.023Z,5.20
2024-03-14T05:43:05.719Z,5.00
2024-03-14T05:45:35.971Z,6.50
2024-03-14T05:48:11.176Z,8.50
2024-03-14T05:50:39.379Z,9.70
2024-03-14T05:53:07.099Z,10.23
2024-03-14T05:55:34.777Z,9.73
2024-03-14T05:58:02.467Z,9.93
2024-03-14T06:00:30.742Z,10.17
2024-03-14T06:02:58.656Z,9.73
2024-03-14T06:05:26.416Z,11.50
2024-03-14T06:07:54.061Z,11.63
2024-03-14T06:10:23.267Z,12.47
2024-03-14T06:12:51.235Z,12.57
2024-03-14T06:15:19.732Z,11.57
2024-03-14T06:17:52.991Z,10.60
2024-03-14T06:20:21.315Z,11.73
2024-03-14T06:22:49.068Z,11.70
2024-03-14T06:25:17.527Z,11.97
2024-03-14T06:27:45.324Z,11.03
2024-03-14T06:30:15.768Z,11.13
2024-03-14T06:32:48.109Z,11.23
2024-03-14T06:35:16.106Z,12.80
2024-03-14T06:37:43.919Z,12.00
2024-03-14T06:40:11.918Z,12.10
2024-03-14T06:42:39.625Z,14.97
2024-03-14T06:45:08.920Z,16.77
2024-03-14T06:47:36.780Z,13.57
2024-03-14T06:50:05.103Z,19.70
2024-03-14T06:52:32.709Z,20.80
2024-03-14T06:55:00.476Z,13.57
2024-03-14T06:57:28.179Z,13.63
2024-03-14T06:59:55.883Z,12.53
2024-03-14T07:02:25.348Z,11.77
2024-03-14T07:04:53.817Z,10.03
2024-03-14T07:07:21.614Z,12.63
2024-03-14T07:09:49.588Z,11.33
2024-03-14T07:12:17.640Z,11.90
2024-03-14T07:14:45.611Z,11.13
2024-03-14T07:17:15.020Z,10.23
2024-03-14T07:19:42.661Z,10.03
2024-03-14T07:22:11.110Z,10.63
2024-03-14T07:24:39.517Z,10.13
2024-03-14T07:27:07.465Z,10.63
2024-03-14T07:29:35.402Z,12.10
2024-03-14T07:32:04.877Z,12.47
2024-03-14T07:34:36.203Z,11.10
2024-03-14T07:37:03.826Z,11.90
2024-03-14T07:39:31.526Z,10.90
2024-03-14T07:41:59.586Z,11.90
2024-03-14T07:44:33.452Z,13.03
2024-03-14T07:47:05.174Z,12.00
2024-03-14T07:49:34.826Z,11.67
2024-03-14T07:52:02.437Z,12.37
2024-03-14T07:54:30.087Z,12.17
2024-03-14T07:56:57.737Z,12.23
2024-03-14T07:59:26.368Z,11.77
2024-03-14T08:01:55.533Z,11.50
2024-03-14T08:04:25.196Z,12.43
2024-03-14T08:06:52.884Z,11.43
2024-03-14T08:09:20.628Z,10.10
2024-03-14T08:11:48.259Z,10.67
2024-03-14T08:14:16.614Z,9.57
2024-03-14T08:16:44.288Z,8.80
2024-03-14T08:19:15.787Z,9.20
2024-03-14T08:21:43.518Z,11.50
2024-03-14T08:24:13.769Z,12.10
2024-03-14T08:26:41.818Z,11.20
2024-03-14T08:29:09.581Z,11.37
2024-03-14T08:31:37.252Z,10.63
2024-03-14T08:34:11.518Z,9.53
2024-03-14T08:36:43.730Z,13.20
2024-03-14T08:39:14.104Z,13.77
2024-03-14T08:41:43.192Z,10.97
2024-03-14T08:44:13.096Z,9.97
2024-03-14T08:46:40.763Z,10.10
2024-03-14T08:49:08.470Z,11.83
2024-03-14T08:51:39.920Z,11.37
2024-03-14T08:54:21.152Z,11.30
2024-03-14T08:56:49.167Z,14.90
2024-03-14T08:59:17.008Z,9.30
2024-03-14T09:01:46.152Z,10.10
2024-03-14T09:04:14.077Z,9.57
2024-03-14T09:06:43.975Z,10.07
2024-03-14T09:09:25.046Z,9.90
2024-03-14T09:11:52.985Z,11.30
2024-03-14T09:14:20.911Z,11.77
2024-03-14T09:16:48.881Z,8.90
2024-03-14T09:19:16.659Z,7.80
2024-03-14T09:21:44.477Z,10.37
2024-03-14T09:24:14.338Z,9.13
2024-03-14T09:26:43.837Z,7.80
2024-03-14T09:29:14.155Z,9.00
2024-03-14T09:31:47.608Z,8.40
2024-03-14T09:34:15.216Z,8.40
2024-03-14T09:36:42.979Z,9.47
2024-03-14T09:39:23.521Z,9.30
2024-03-14T09:41:51.909Z,8.70
2024-03-14T09:44:24.871Z,8.13
2024-03-14T09:46:57.753Z,10.07
2024-03-14T09:49:25.839Z,9.00
2024-03-14T09:51:54.557Z,9.13
2024-03-14T09:54:22.347Z,7.23
2024-03-14T09:56:50.161Z,8.57
2024-03-14T09:59:17.774Z,8.73
2024-03-14T10:01:46.135Z,8.27
2024-03-14T10:04:14.370Z,9.43
2024-03-14T10:06:42.251Z,9.10
2024-03-14T10:09:20.456Z,9.20
2024-03-14T10:12:03.402Z,9.30
2024-03-14T10:14:34.256Z,9.37
2024-03-14T10:17:02.144Z,9.57
2024-03-14T10:19:32.110Z,8.93
2024-03-14T10:21:59.901Z,8.83
2024-03-14T10:24:29.558Z,7.77
2024-03-14T10:26:57.865Z,8.37
2024-03-14T10:29:30.820Z,8.93
2024-03-14T10:31:58.485Z,8.40
2024-03-14T10:34:26.204Z,9.10
2024-03-14T10:36:55.636Z,8.80
2024-03-14T10:39:27.241Z,9.33
2024-03-14T10:41:55.302Z,11.17
2024-03-14T10:44:24.152Z,8.07
2024-03-14T10:46:52.266Z,11.93
2024-03-14T10:49:26.256Z,12.97
2024-03-14T10:51:55.012Z,12.03
2024-03-14T10:54:25.236Z,11.30
2024-03-14T10:56:52.961Z,13.13
2024-03-14T10:59:24.505Z,11.77
2024-03-14T11:01:54.593Z,12.20
2024-03-14T11:04:22.673Z,10.53
2024-03-14T11:06:51.598Z,10.40
2024-03-14T11:09:22.286Z,10.23
2024-03-14T11:11:52.730Z,9.43
2024-03-14T11:14:26.441Z,10.30
2024-03-14T11:16:57.600Z,11.10
2024-03-14T11:19:27.405Z,10.77
2024-03-14T11:21:55.772Z,9.47
2024-03-14T11:24:26.815Z,8.17
2024-03-14T11:26:55.151Z,9.80
2024-03-14T11:29:23.511Z,8.70
2024-03-14T11:32:11.063Z,9.60
2024-03-14T11:34:38.808Z,8.47
2024-03-14T11:37:06.989Z,7.80
2024-03-14T11:39:38.284Z,9.17
2024-03-14T11:42:13.208Z,7.50
2024-03-14T11:44:46.295Z,8.23
2024-03-14T11:47:17.837Z,8.93
2024-03-14T11:49:45.838Z,7.73
2024-03-14T11:52:13.440Z,7.70
2024-03-14T11:54:42.851Z,7.90
2024-03-14T11:57:10.581Z,6.70
2024-03-14T11:59:47.620Z,7.40
2024-03-14T12:02:22.633Z,7.83
2024-03-14T12:04:50.661Z,7.50
2024-03-14T12:07:18.297Z,7.40
2024-03-14T12:09:46.046Z,6.40
2024-03-14T12:12:14.176Z,7.30
2024-03-14T12:14:41.854Z,6.73
2024-03-14T12:17:18.100Z,7.07
2024-03-14T12:19:45.789Z,7.33
2024-03-14T12:22:13.534Z,7.30
2024-03-14T12:24:41.101Z,6.10
2024-03-14T12:27:12.770Z,6.40
2024-03-14T12:29:40.621Z,5.47
2024-03-14T12:32:10.408Z,5.90
2024-03-14T12:34:38.184Z,5.43
2024-03-14T12:37:05.888Z,6.60
2024-03-14T12:39:33.660Z,5.87
2024-03-14T12:42:01.631Z,5.40
2024-03-14T12:44:29.624Z,4.90
2024-03-14T12:46:57.278Z,4.90
2024-03-14T12:49:24.874Z,5.00
2024-03-14T12:51:58.626Z,4.70
2024-03-14T12:54:34.195Z,4.23
2024-03-14T12:57:04.088Z,4.10
2024-03-14T12:59:37.199Z,3.90
2024-03-14T13:02:07.729Z,4.37
2024-03-14T13:04:43.585Z,5.10
2024-03-14T13:07:15.728Z,4.87
2024-03-14T13:09:43.414Z,4.50
2024-03-14T13:12:24.144Z,4.47
2024-03-14T13:15:01.821Z,4.43
2024-03-14T13:17:29.704Z,4.90
2024-03-14T13:19:58.141Z,3.67
2024-03-14T13:22:26.513Z,3.77
2024-03-14T13:24:56.277Z,3.97
2024-03-14T13:27:25.475Z,3.60
2024-03-14T13:29:53.150Z,3.40
2024-03-14T13:32:22.993Z,3.10
2024-03-14T13:34:52.985Z,3.47
2024-03-14T13:37:20.599Z,3.73
2024-03-14T13:39:48.899Z,2.90
2024-03-14T13:42:18.085Z,3.20
2024-03-14T13:44:47.557Z,3.57
2024-03-14T13:47:24.099Z,3.60
2024-03-14T13:49:54.985Z,3.70
2024-03-14T13:52:23.466Z,3.67
2024-03-14T13:54:51.773Z,3.60
2024-03-14T13:57:21.252Z,3.73
2024-03-14T13:59:48.951Z,3.20
2024-03-14T14:02:18.902Z,3.07
2024-03-14T14:04:49.777Z,3.47
2024-03-14T14:07:20.071Z,3.83
2024-03-14T14:09:47.920Z,3.97
2024-03-14T14:12:15.686Z,4.60
2024-03-14T14:14:43.411Z,2.97
2024-03-14T14:17:11.057Z,3.20
2024-03-14T14:19:39.131Z,3.83
2024-03-14T14:22:09.836Z,3.00
2024-03-14T14:24:37.616Z,3.10
2024-03-14T14:27:05.325Z,2.90
2024-03-14T14:29:33.080Z,2.43
2024-03-14T14:32:01.251Z,2.67
2024-03-14T14:34:29.888Z,2.63
2024-03-14T14:36:58.472Z,2.60
2024-03-14T14:39:30.761Z,2.30
2024-03-14T14:42:00.626Z,1.90
2024-03-14T14:44:28.217Z,2.27
2024-03-14T14:46:55.815Z,1.67
2024-03-14T14:49:23.768Z,1.70
2024-03-14T14:51:51.458Z,1.70
2024-03-14T14:54:19.141Z,1.70
2024-03-14T14:56:46.769Z,1.40
2024-03-14T14:59:14.467Z,1.90
2024-03-14T15:01:42.132Z,1.50
2024-03-14T15:04:09.825Z,1.50
2024-03-14T15:06:37.671Z,1.80
2024-03-14T15:09:06.552Z,1.60
2024-03-14T15:11:35.089Z,1.57
2024-03-14T15:14:05.262Z,1.77
2024-03-14T15:16:33.349Z,1.50
2024-03-14T15:19:03.594Z,1.40
2024-03-14T15:21:31.957Z,1.60
2024-03-14T15:23:59.640Z,1.70
2024-03-14T15:26:28.211Z,1.90
2024-03-14T15:28:55.850Z,1.63
2024-03-14T15:31:23.494Z,1.53
2024-03-14T15:33:51.230Z,1.60
2024-03-14T15:36:20.040Z,1.73
2024-03-14T15:38:48.125Z,1.73
2024-03-14T15:41:15.965Z,1.67
2024-03-14T15:43:43.873Z,1.77
2024-03-14T15:46:13.922Z,1.77
2024-03-14T15:48:41.548Z,1.53
2024-03-14T15:51:16.977Z,1.93
2024-03-14T15:53:45.351Z,1.83
2024-03-14T15:56:13.075Z,1.93
2024-03-14T15:58:43.338Z,1.90
2024-03-14T16:01:11.439Z,1.60
2024-03-14T16:03:39.125Z,1.97
2024-03-14T16:06:06.847Z,1.63
2024-03-14T16:08:45.160Z,1.43
2024-03-14T16:11:16.438Z,1.57
2024-03-14T16:13:44.534Z,1.60
2024-03-14T16:16:13.742Z,1.70
2024-03-14T16:18:41.574Z,1.63
2024-03-14T16:21:09.526Z,2.00
2024-03-14T16:23:37.288Z,1.70
2024-03-14T16:26:04.878Z,1.80
2024-03-14T16:28:33.177Z,1.93
2024-03-14T16:31:03.262Z,1.83
2024-03-14T16:33:32.719Z,2.33
2024-03-14T16:36:00.549Z,1.90
2024-03-14T16:38:28.510Z,1.80
2024-03-14T16:40:56.152Z,1.90
2024-03-14T16:43:23.897Z,2.03
2024-03-14T16:45:52.541Z,1.73
2024-03-14T16:48:20.277Z,1.93
2024-03-14T16:50:47.929Z,2.03
2024-03-14T16:53:15.544Z,2.27
2024-03-14T16:55:43.144Z,1.97
2024-03-14T16:58:12.038Z,2.00
2024-03-14T17:00:40.668Z,1.40
2024-03-14T17:03:10.251Z,2.00
2024-03-14T17:05:38.004Z,2.10
2024-03-14T17:08:08.338Z,1.83
2024-03-14T17:10:37.028Z,1.60
2024-03-14T17:13:06.729Z,1.63
2024-03-14T17:15:35.766Z,1.87
2024-03-14T17:18:04.462Z,1.60
2024-03-14T17:20:32.138Z,1.70
2024-03-14T17:22:59.791Z,1.63
2024-03-14T17:25:27.639Z,2.00
2024-03-14T17:27:56.186Z,2.00
2024-03-14T17:30:28.899Z,2.30
2024-03-14T17:32:58.677Z,1.80
2024-03-14T17:35:31.149Z,2.40
2024-03-14T17:37:58.841Z,2.23
2024-03-14T17:40:26.450Z,2.50
2024-03-14T17:42:54.135Z,2.47
2024-03-14T17:45:27.396Z,2.50
2024-03-14T17:47:58.409Z,2.23
2024-03-14T17:50:27.763Z,2.30
2024-03-14T17:52:55.585Z,2.30
2024-03-14T17:55:23.223Z,2.30
2024-03-14T17:57:51.180Z,2.60
2024-03-14T18:00:19.592Z,4.50
2024-03-14T18:02:48.467Z,5.17
2024-03-14T18:05:17.773Z,3.60
2024-03-14T18:07:45.983Z,2.67
2024-03-14T18:10:17.625Z,2.37
2024-03-14T18:12:46.159Z,2.07
2024-03-14T18:15:17.405Z,2.53
2024-03-14T18:17:45.300Z,2.97
2024-03-14T18:20:14.571Z,3.10
2024-03-14T18:22:43.226Z,2.87
2024-03-14T18:25:11.433Z,2.83
2024-03-14T18:27:39.463Z,2.83
2024-03-14T18:30:14.553Z,2.83
2024-03-14T18:32:45.356Z,2.90
2024-03-14T18:35:24.090Z,3.00
2024-03-14T18:37:52.824Z,3.20
2024-03-14T18:40:27.608Z,3.43
2024-03-14T18:42:59.338Z,3.00
2024-03-14T18:45:28.655Z,3.10
2024-03-14T18:47:59.669Z,2.90
2024-03-14T18:50:27.874Z,2.77
2024-03-14T18:52:56.351Z,3.13
2024-03-14T18:55:24.744Z,4.10
2024-03-14T18:57:53.706Z,3.40
2024-03-14T19:00:25.704Z,3.77
2024-03-14T19:02:53.756Z,3.60
2024-03-14T19:05:28.952Z,3.20
2024-03-14T19:07:59.181Z,4.10
2024-03-14T19:10:28.982Z,3.90
2024-03-14T19:12:58.837Z,3.77
2024-03-14T19:15:26.545Z,3.97
2024-03-14T19:17:54.217Z,3.60
2024-03-14T19:20:23.045Z,3.37
2024-03-14T19:22:53.019Z,3.10
2024-03-14T19:25:22.176Z,3.53
2024-03-14T19:27:55.396Z,3.17
2024-03-14T19:30:24.673Z,3.60
2024-03-14T19:32:53.078Z,3.27
2024-03-14T19:35:23.656Z,3.10
2024-03-14T19:37:51.333Z,3.37
2024-03-14T19:40:19.298Z,3.53
2024-03-14T19:42:48.001Z,3.27
2024-03-14T19:45:16.175Z,3.23
2024-03-14T19:47:47.536Z,3.50
2024-03-14T19:50:15.338Z,3.60
2024-03-14T19:52:43.303Z,3.90
2024-03-14T19:55:10.936Z,3.63
2024-03-14T19:57:39.889Z,4.30
2024-03-14T20:00:11.687Z,4.37
2024-03-14T20:02:41.897Z,4.00
2024-03-14T20:05:10.003Z,4.73
2024-03-14T20:07:37.828Z,4.20
2024-03-14T20:10:06.616Z,4.63
2024-03-14T20:12:36.042Z,5.33
2024-03-14T20:15:03.991Z,4.43
2024-03-14T20:17:31.865Z,4.93
2024-03-14T20:19:59.580Z,5.00
2024-03-14T20:22:27.221Z,4.90
2024-03-14T20:24:55.654Z,5.60
2024-03-14T20:27:25.336Z,5.07
2024-03-14T20:29:55.309Z,4.90
2024-03-14T20:32:23.945Z,5.10
2024-03-14T20:34:51.833Z,5.97
2024-03-14T20:37:22.759Z,5.17
2024-03-14T20:40:00.908Z,5.13
2024-03-14T20:42:33.787Z,4.90
2024-03-14T20:45:02.051Z,5.10
2024-03-14T20:47:30.515Z,4.67
2024-03-14T20:49:58.535Z,4.10
2024-03-14T20:52:27.466Z,5.27
2024-03-14T20:55:01.533Z,5.47
2024-03-14T20:57:30.900Z,5.03
2024-03-14T20:59:58.933Z,5.60
2024-03-14T21:02:26.690Z,5.17
2024-03-14T21:04:56.398Z,5.00
2024-03-14T21:07:24.090Z,5.63
2024-03-14T21:09:54.700Z,5.17
2024-03-14T21:12:24.619Z,5.50
2024-03-14T21:14:54.454Z,5.03
2024-03-14T21:17:22.178Z,4.57
2024-03-14T21:19:49.868Z,4.97
2024-03-14T21:22:17.701Z,5.53
2024-03-14T21:24:45.499Z,5.20
2024-03-14T21:27:13.311Z,4.80
2024-03-14T21:29:41.672Z,5.50
2024-03-14T21:32:09.366Z,5.00
2024-03-14T21:34:39.759Z,6.13
2024-03-14T21:37:08.509Z,6.23
2024-03-14T21:39:39.550Z,5.57
2024-03-14T21:42:11.511Z,4.80
2024-03-14T21:44:42.825Z,5.07
2024-03-14T21:47:10.507Z,4.90
2024-03-14T21:49:38.329Z,4.87
2024-03-14T21:52:06.081Z,4.93
2024-03-14T21:54:33.822Z,4.80
2024-03-14T21:57:02.454Z,4.30
2024-03-14T21:59:40.097Z,4.20
2024-03-14T22:02:09.781Z,4.97
2024-03-14T22:04:37.882Z,4.53
2024-03-14T22:07:05.989Z,4.60
2024-03-14T22:09:33.658Z,5.23
2024-03-14T22:12:01.465Z,4.97
2024-03-14T22:14:29.112Z,5.70
2024-03-14T22:16:56.907Z,4.90
2024-03-14T22:19:24.630Z,5.63
2024-03-14T22:21:52.629Z,5.47
2024-03-14T22:24:20.371Z,5.37
2024-03-14T22:26:48.035Z,5.17
2024-03-14T22:29:15.713Z,5.23
2024-03-14T22:31:43.369Z,4.90
2024-03-14T22:34:11.273Z,5.40
2024-03-14T22:36:40.468Z,5.07
2024-03-14T22:39:11.462Z,5.10
2024-03-14T22:41:39.235Z,5.53
2024-03-14T22:44:06.987Z,5.80
2024-03-14T22:46:34.731Z,5.50
2024-03-14T22:49:02.544Z,5.40
2024-03-14T22:51:30.228Z,5.20
2024-03-14T22:53:59.165Z,4.37
2024-03-14T22:56:26.822Z,3.90
2024-03-14T22:58:54.456Z,3.60
2024-03-14T23:01:22.379Z,3.27
2024-03-14T23:03:50.105Z,3.73
2024-03-14T23:06:18.330Z,3.87
2024-03-14T23:08:46.794Z,3.60
2024-03-14T23:11:14.411Z,4.20
2024-03-14T23:13:42.113Z,3.20
2024-03-14T23:16:10.490Z,3.23
2024-03-14T23:18:38.212Z,3.97
2024-03-14T23:21:07.123Z,3.30
2024-03-14T23:23:34.776Z,3.80
2024-03-14T23:26:05.149Z,3.80
2024-03-14T23:28:33.923Z,4.33
2024-03-14T23:31:01.481Z,4.27
2024-03-14T23:33:30.287Z,4.50
2024-03-14T23:35:57.963Z,4.70
2024-03-14T23:38:25.598Z,4.67
2024-03-14T23:40:53.241Z,4.30
2024-03-14T23:43:20.889Z,5.17
2024-03-14T23:45:48.589Z,4.83
2024-03-14T23:48:16.341Z,4.70
2024-03-14T23:50:44.053Z,4.77
2024-03-14T23:53:11.748Z,4.60
2024-03-14T23:55:39.448Z,4.67
2024-03-14T23:58:07.846Z,4.83
